Time;durP1;ratioP1;P1;durP2;ratioP2;P2;SDS_P1;SDS_P2;PMS_P1;PMS_P2;Temp;Humidity;BMP_temperature;BMP_pressure;BME280_temperature;BME280_humidity;BME280_pressure;Samples;Min_cycle;Max_cycle;Signal;HPM_P1;HPM_P2
2023/04/18 00:02:16;;;;;;;17.25;10.90;;;;;;;9.72;66.56;102304.25;3613930;39;20061;-67
2023/04/18 00:04:45;;;;;;;15.93;11.00;;;;;;;9.16;66.54;102213.97;3615511;39;20043;-68
2023/04/18 00:07:14;;;;;;;12.45;9.82;;;;;;;9.89;66.28;102336.75;3618148;39;20367;-67
2023/04/18 00:09:40;;;;;;;14.23;10.40;;;;;;;9.68;66.75;102305.28;3616495;39;20050;-67
2023/04/18 00:12:06;;;;;;;11.32;10.10;;;;;;;9.89;66.33;102339.44;3605277;39;20106;-67
2023/04/18 00:14:36;;;;;;;14.40;10.55;;;;;;;9.09;66.52;102198.16;3614571;39;20083;-67
2023/04/18 00:17:07;;;;;;;13.80;10.02;;;;;;;9.86;66.76;102333.28;3614268;39;20094;-67
2023/04/18 00:19:33;;;;;;;14.05;10.85;;;;;;;9.63;66.78;102304.56;3605124;39;20434;-67
2023/04/18 00:21:59;;;;;;;14.25;10.57;;;;;;;9.79;66.75;102332.63;3618330;39;20102;-67
2023/04/18 00:24:25;;;;;;;16.65;11.60;;;;;;;9.79;66.67;102338.00;3616594;39;20085;-67
2023/04/18 00:26:50;;;;;;;12.82;10.65;;;;;;;9.20;67.03;102228.19;3614522;39;20051;-67
2023/04/18 00:29:16;;;;;;;14.40;10.98;;;;;;;9.75;66.50;102331.88;3614601;39;20366;-67
2023/04/18 00:31:42;;;;;;;15.13;10.85;;;;;;;9.72;66.91;102331.09;3614078;39;20062;-67
2023/04/18 00:34:07;;;;;;;13.25;10.00;;;;;;;9.68;67.15;102326.78;3616654;39;20135;-67
2023/04/18 00:36:33;;;;;;;16.45;11.18;;;;;;;9.66;66.95;102325.94;3614936;39;20373;-67
2023/04/18 00:38:59;;;;;;;13.25;11.35;;;;;;;9.65;67.58;102325.06;3612793;39;20869;-67
2023/04/18 00:41:27;;;;;;;15.23;10.77;;;;;;;9.63;67.50;102342.16;3616741;39;20042;-67
2023/04/18 00:43:53;;;;;;;15.57;10.82;;;;;;;9.57;67.16;102318.19;3608756;39;20046;-67
2023/04/18 00:46:19;;;;;;;15.63;11.02;;;;;;;9.52;67.21;102321.91;3617853;39;20051;-67
2023/04/18 00:48:46;;;;;;;15.55;11.32;;;;;;;8.63;67.70;102170.16;3615467;39;20093;-67
2023/04/18 00:51:13;;;;;;;15.45;11.02;;;;;;;9.47;68.21;102320.31;3617881;39;20051;-67
2023/04/18 00:53:40;;;;;;;16.95;11.45;;;;;;;9.42;68.19;102315.09;3603615;39;20466;-67
2023/04/18 00:56:06;;;;;;;15.68;12.18;;;;;;;9.39;67.64;102325.06;3613337;39;20050;-67
2023/04/18 00:58:32;;;;;;;14.52;11.15;;;;;;;9.38;68.44;102321.47;3613802;39;20074;-67
2023/04/18 01:00:58;;;;;;;18.25;11.50;;;;;;;9.37;67.63;102318.84;3613734;39;20309;-66
2023/04/18 01:03:25;;;;;;;14.75;11.32;;;;;;;9.36;67.40;102323.34;3613820;39;20061;-67
2023/04/18 01:05:54;;;;;;;14.25;11.20;;;;;;;9.36;66.02;102323.34;3603388;39;20166;-67
2023/04/18 01:08:21;;;;;;;12.30;10.15;;;;;;;9.36;65.60;102326.03;3617058;39;20359;-66
2023/04/18 01:10:48;;;;;;;12.90;10.25;;;;;;;9.36;65.55;102328.72;3614714;39;20061;-67
2023/04/18 01:13:19;;;;;;;14.40;9.93;;;;;;;9.34;65.39;102322.50;3617758;39;20050;-67
2023/04/18 01:15:49;;;;;;;14.40;10.05;;;;;;;9.33;63.88;102323.44;3606416;39;20047;-67
2023/04/18 01:18:16;;;;;;;13.18;9.57;;;;;;;9.32;63.85;102329.72;3617128;39;20053;-67
2023/04/18 01:20:55;;;;;;;12.75;9.48;;;;;;;9.33;62.33;102323.44;3613664;39;20066;-67
2023/04/18 01:23:21;;;;;;;12.43;9.10;;;;;;;8.75;62.05;102226.06;3615686;39;20053;-67
2023/04/18 01:25:50;;;;;;;12.00;9.35;;;;;;;8.75;62.15;102226.06;3607065;39;20055;-67
2023/04/18 01:28:21;;;;;;;15.95;9.60;;;;;;;9.30;61.79;102310.13;3606026;39;20050;-67
2023/04/18 01:30:47;;;;;;;12.18;9.48;;;;;;;8.49;61.58;102184.00;3613896;39;20039;-67
2023/04/18 01:33:12;;;;;;;13.70;9.10;;;;;;;9.29;62.04;102319.09;3606532;39;20301;-67
2023/04/18 01:35:38;;;;;;;12.55;8.68;;;;;;;9.27;61.19;102318.28;3615793;39;20047;-67
2023/04/18 01:38:04;;;;;;;14.98;9.10;;;;;;;9.21;61.46;102311.31;3617239;39;20377;-67
2023/04/18 01:40:30;;;;;;;14.65;10.02;;;;;;;9.19;61.10;102312.28;3619672;39;20109;-67
2023/04/18 01:42:55;;;;;;;13.15;9.98;;;;;;;8.98;61.68;102273.63;3616227;39;21750;-67
2023/04/18 01:45:21;;;;;;;11.45;9.35;;;;;;;9.13;60.85;102309.78;3613478;39;20055;-67
2023/04/18 01:47:47;;;;;;;12.88;9.07;;;;;;;9.09;61.30;102302.78;3616968;39;20047;-67
2023/04/18 01:50:13;;;;;;;17.27;9.88;;;;;;;9.06;61.64;102304.63;3617375;39;20137;-67
2023/04/18 01:52:39;;;;;;;12.15;9.00;;;;;;;9.01;60.94;102306.59;3616822;39;20050;-67
2023/04/18 01:55:05;;;;;;;12.65;9.25;;;;;;;8.94;61.10;102294.25;3604947;39;20389;-67
2023/04/18 01:57:35;;;;;;;15.02;9.50;;;;;;;8.97;61.17;102299.53;3613760;39;20057;-67
2023/04/18 02:00:02;;;;;;;12.15;8.95;;;;;;;8.79;61.16;102274.19;3612374;39;20367;-67
2023/04/18 02:02:28;;;;;;;15.20;9.82;;;;;;;8.91;61.59;102305.13;3613040;39;20123;-67
2023/04/18 02:04:53;;;;;;;13.27;9.55;;;;;;;8.86;61.11;102296.34;3615966;39;20050;-67
2023/04/18 02:07:19;;;;;;;14.13;10.45;;;;;;;8.80;61.73;102301.88;3604603;39;20047;-67
2023/04/18 02:09:45;;;;;;;13.65;9.43;;;;;;;8.79;61.80;102295.66;3613772;39;20058;-67
2023/04/18 02:12:11;;;;;;;12.07;9.00;;;;;;;8.77;62.26;102301.97;3616560;39;20051;-67
2023/04/18 02:14:37;;;;;;;15.20;9.40;;;;;;;8.08;62.02;102186.09;3613552;39;20055;-66
2023/04/18 02:17:02;;;;;;;16.00;10.10;;;;;;;8.70;62.15;102303.97;3618987;39;20408;-66
2023/04/18 02:19:29;;;;;;;13.82;9.43;;;;;;;8.67;62.61;102298.69;3613752;39;20043;-67
2023/04/18 02:21:55;;;;;;;15.05;9.73;;;;;;;8.55;62.34;102286.53;3612188;39;20153;-67
2023/04/18 02:24:20;;;;;;;17.38;9.13;;;;;;;8.56;62.75;102301.72;3619059;39;20385;-67
2023/04/18 02:26:46;;;;;;;14.73;9.43;;;;;;;8.51;62.76;102290.22;3613115;39;20055;-67
2023/04/18 02:29:11;;;;;;;15.63;9.65;;;;;;;7.84;62.91;102180.56;3619809;39;20070;-67
2023/04/18 02:31:40;;;;;;;14.30;9.75;;;;;;;8.46;62.26;102291.28;3613648;39;20258;-66
2023/04/18 02:34:07;;;;;;;12.23;9.18;;;;;;;8.42;62.38;102295.88;3616508;39;20293;-67
2023/04/18 02:36:33;;;;;;;10.60;8.98;;;;;;;8.42;63.02;102293.19;3616619;39;20049;-66
2023/04/18 02:38:59;;;;;;;13.30;9.82;;;;;;;8.40;62.96;102294.16;3613536;39;20071;-67
2023/04/18 02:41:24;;;;;;;12.65;9.30;;;;;;;8.37;62.68;102292.38;3612666;39;20400;-67
2023/04/18 02:43:50;;;;;;;13.80;9.77;;;;;;;8.31;63.23;102289.91;3614292;39;20055;-67
2023/04/18 02:46:16;;;;;;;12.82;9.75;;;;;;;8.23;63.36;102284.75;3613521;39;20061;-66
2023/04/18 02:48:42;;;;;;;13.27;9.90;;;;;;;8.22;63.14;102292.88;3614498;39;20059;-67
2023/04/18 02:51:08;;;;;;;16.13;10.70;;;;;;;7.70;62.98;102208.63;3613304;39;20055;-67
2023/04/18 02:53:34;;;;;;;10.30;9.00;;;;;;;8.12;62.48;102284.22;3613411;39;20390;-67
2023/04/18 02:56:01;;;;;;;15.13;9.75;;;;;;;8.14;63.11;102293.94;3613064;39;20067;-67
2023/04/18 02:58:27;;;;;;;15.65;9.60;;;;;;;8.10;63.37;102300.31;3613474;39;20382;-67
2023/04/18 03:00:54;;;;;;;12.48;8.90;;;;;;;8.07;63.32;102292.34;3613138;39;20085;-67
2023/04/18 03:03:20;;;;;;;12.43;9.13;;;;;;;7.28;63.60;102168.75;3613276;39;20404;-67
2023/04/18 03:05:46;;;;;;;13.43;9.93;;;;;;;8.01;63.63;102292.53;3613049;39;20070;-67
2023/04/18 03:08:12;;;;;;;12.80;9.45;;;;;;;7.25;63.67;102164.34;3612368;39;20123;-67
2023/04/18 03:10:38;;;;;;;13.60;9.82;;;;;;;7.99;63.61;102285.44;3613362;39;20051;-67
2023/04/18 03:13:04;;;;;;;13.50;10.00;;;;;;;7.93;63.49;102282.94;3616088;39;20093;-67
2023/04/18 03:15:30;;;;;;;13.15;8.93;;;;;;;7.88;63.37;102283.06;3614291;39;20298;-67
2023/04/18 03:17:57;;;;;;;15.00;8.93;;;;;;;7.88;63.84;102291.09;3606761;39;20062;-67
2023/04/18 03:20:23;;;;;;;11.40;9.20;;;;;;;7.86;63.73;102292.94;3613217;39;20469;-67
2023/04/18 03:22:49;;;;;;;13.98;10.07;;;;;;;7.17;63.81;102185.94;3613653;39;20063;-67
2023/04/18 03:25:14;;;;;;;14.57;9.85;;;;;;;7.79;63.98;102299.38;3614148;39;20111;-67
2023/04/18 03:27:41;;;;;;;12.32;8.90;;;;;;;7.55;64.14;102258.97;3612663;39;20098;-67
2023/04/18 03:30:08;;;;;;;11.77;9.07;;;;;;;7.73;63.99;102291.50;3616445;39;20297;-67
2023/04/18 03:32:35;;;;;;;13.77;9.65;;;;;;;7.72;64.15;102295.13;3618694;39;20095;-67
2023/04/18 03:35:01;;;;;;;16.00;9.60;;;;;;;7.06;64.10;102182.66;3615880;39;20055;-67
2023/04/18 03:37:27;;;;;;;13.77;9.40;;;;;;;7.66;64.75;102293.47;3616796;39;20053;-67
2023/04/18 03:39:53;;;;;;;12.05;9.23;;;;;;;7.62;64.53;102303.38;3605071;39;20055;-67
2023/04/18 03:42:19;;;;;;;14.00;9.65;;;;;;;7.59;64.76;102298.09;3605957;39;20058;-67
2023/04/18 03:44:45;;;;;;;14.63;9.82;;;;;;;6.76;64.86;102164.72;3614184;39;20051;-67
2023/04/18 03:47:10;;;;;;;13.80;9.75;;;;;;;7.44;64.54;102277.09;3615134;39;20046;-67
2023/04/18 03:49:36;;;;;;;11.85;9.02;;;;;;;7.49;64.69;102301.06;3614846;39;20076;-67
2023/04/18 03:52:01;;;;;;;13.55;9.63;;;;;;;6.89;64.60;102198.25;3617318;39;20055;-67
2023/04/18 03:54:27;;;;;;;12.73;9.77;;;;;;;7.43;64.65;102297.63;3616862;39;20309;-67
2023/04/18 03:56:53;;;;;;;15.40;9.80;;;;;;;7.40;64.42;102291.47;3612406;39;20743;-67
2023/04/18 03:59:19;;;;;;;13.75;9.32;;;;;;;7.38;64.58;102290.63;3614964;39;20103;-67
2023/04/18 04:01:44;;;;;;;12.88;9.70;;;;;;;7.36;65.14;102297.81;3614803;39;20438;-67
2023/04/18 04:04:12;;;;;;;14.65;9.55;;;;;;;7.33;65.05;102295.22;3615469;39;20061;-66
2023/04/18 04:06:38;;;;;;;13.32;9.15;;;;;;;6.66;65.38;102186.31;3614886;39;20413;-66
2023/04/18 04:09:03;;;;;;;14.27;9.30;;;;;;;7.27;65.51;102296.25;3613880;39;20096;-66
2023/04/18 04:11:29;;;;;;;12.68;9.80;;;;;;;7.25;65.36;102291.84;3614551;39;20089;-65
2023/04/18 04:13:55;;;;;;;14.40;10.20;;;;;;;7.25;65.16;102299.88;3614156;39;20312;-66
2023/04/18 04:16:20;;;;;;;13.25;9.05;;;;;;;7.20;65.00;102300.00;3614608;39;20051;-66
2023/04/18 04:18:46;;;;;;;11.85;9.65;;;;;;;7.18;65.54;102292.00;3615216;39;20131;-66
2023/04/18 04:21:12;;;;;;;12.85;9.88;;;;;;;7.13;65.60;102299.22;3615965;39;20083;-66
2023/04/18 04:23:37;;;;;;;11.82;9.13;;;;;;;7.12;65.69;102301.97;3618617;39;20381;-66
2023/04/18 04:26:03;;;;;;;11.68;9.50;;;;;;;6.38;65.88;102179.88;3617915;39;20054;-66
2023/04/18 04:28:30;;;;;;;13.80;9.68;;;;;;;7.14;66.12;102300.13;3617198;39;20058;-66
2023/04/18 04:30:56;;;;;;;13.55;9.30;;;;;;;7.08;65.26;102298.47;3614376;39;20110;-66
2023/04/18 04:33:32;;;;;;;13.10;9.45;;;;;;;7.06;66.15;102302.97;3617064;39;20047;-66
2023/04/18 04:35:59;;;;;;;14.77;9.20;;;;;;;7.01;65.90;102296.88;3616603;39;20486;-66
2023/04/18 04:38:24;;;;;;;11.18;9.25;;;;;;;7.05;65.82;102305.69;3617928;39;20050;-66
2023/04/18 04:40:51;;;;;;;13.20;9.27;;;;;;;7.06;65.62;102308.31;3613802;39;20262;-66
2023/04/18 04:43:19;;;;;;;15.55;11.60;;;;;;;7.03;65.42;102303.03;3617776;39;20326;-67
2023/04/18 04:45:50;;;;;;;11.98;8.77;;;;;;;6.98;65.63;102304.97;3615016;39;20462;-67
2023/04/18 04:48:17;;;;;;;15.93;9.55;;;;;;;6.96;66.41;102305.00;3614397;39;20051;-67
2023/04/18 04:50:52;;;;;;;13.38;9.75;;;;;;;6.93;66.04;102309.53;3613833;39;20051;-67
2023/04/18 04:53:18;;;;;;;11.98;8.95;;;;;;;6.39;66.22;102213.66;3604911;39;20043;-67
2023/04/18 04:55:45;;;;;;;12.40;9.15;;;;;;;6.94;66.45;102319.28;3614152;39;20364;-68
2023/04/18 04:58:10;;;;;;;12.70;9.88;;;;;;;6.87;66.34;102309.66;3614367;39;20059;-67
2023/04/18 05:00:36;;;;;;;15.88;9.25;;;;;;;6.93;65.71;102306.84;3613898;39;20050;-67
2023/04/18 05:03:02;;;;;;;13.85;9.65;;;;;;;6.89;65.74;102310.53;3606834;39;20050;-67
2023/04/18 05:05:29;;;;;;;13.15;9.70;;;;;;;6.89;66.26;102305.19;3613009;39;20273;-67
2023/04/18 05:07:54;;;;;;;14.43;9.45;;;;;;;6.83;65.88;102291.94;3613723;39;20065;-67
2023/04/18 05:10:20;;;;;;;13.93;9.20;;;;;;;6.91;66.27;102306.91;3613997;39;20051;-66
2023/04/18 05:12:46;;;;;;;11.43;8.73;;;;;;;6.90;66.30;102304.25;3603945;39;20061;-67
2023/04/18 05:15:15;;;;;;;13.25;9.27;;;;;;;6.22;65.65;102185.53;3614045;39;20073;-67
2023/04/18 05:17:41;;;;;;;13.30;9.55;;;;;;;6.95;65.83;102311.25;3616533;39;20472;-66
2023/04/18 05:20:08;;;;;;;13.63;9.38;;;;;;;6.97;65.87;102309.41;3613821;39;20054;-67
2023/04/18 05:22:34;;;;;;;15.80;8.90;;;;;;;6.98;65.27;102315.66;3615219;39;20086;-67
2023/04/18 05:25:01;;;;;;;11.95;9.27;;;;;;;6.93;65.59;102307.72;3617045;39;20067;-67
2023/04/18 05:27:27;;;;;;;12.90;9.40;;;;;;;6.96;64.99;102323.69;3606443;39;21009;-67
2023/04/18 05:29:53;;;;;;;13.30;9.40;;;;;;;7.01;65.22;102318.25;3618445;39;20053;-68
2023/04/18 05:32:19;;;;;;;11.85;8.85;;;;;;;7.07;65.48;102323.47;3613901;39;20300;-67
2023/04/18 05:34:44;;;;;;;12.82;8.30;;;;;;;7.11;64.66;102333.19;3616884;39;20091;-67
2023/04/18 05:37:10;;;;;;;15.10;9.38;;;;;;;7.10;65.11;102319.81;3614210;39;20077;-66
2023/04/18 05:39:36;;;;;;;12.55;9.07;;;;;;;7.16;64.97;102333.06;3615523;39;20057;-66
2023/04/18 05:42:02;;;;;;;11.18;8.48;;;;;;;7.21;64.88;102333.84;3613726;39;20076;-67
2023/04/18 05:44:28;;;;;;;13.98;9.38;;;;;;;7.25;64.26;102335.50;3616558;39;20072;-67
2023/04/18 05:46:54;;;;;;;14.10;8.68;;;;;;;7.34;64.00;102339.78;3613722;39;20364;-68
2023/04/18 05:49:20;;;;;;;12.13;9.75;;;;;;;7.32;64.32;102320.19;3614701;39;20046;-67
2023/04/18 05:51:48;;;;;;;12.90;8.75;;;;;;;7.44;63.90;102343.97;3616525;39;20058;-67
2023/04/18 05:54:15;;;;;;;11.00;8.10;;;;;;;6.95;63.72;102240.88;3612981;39;20398;-66
2023/04/18 05:56:41;;;;;;;11.30;9.00;;;;;;;7.59;63.50;102338.25;3615083;39;20371;-67
2023/04/18 05:59:07;;;;;;;14.50;9.23;;;;;;;7.65;63.24;102343.44;3616281;39;20043;-67
2023/04/18 06:01:33;;;;;;;12.48;9.25;;;;;;;7.69;63.47;102352.28;3614869;39;20474;-66
2023/04/18 06:03:58;;;;;;;12.45;8.95;;;;;;;7.75;63.20;102345.91;3615096;39;20066;-67
2023/04/18 06:06:24;;;;;;;10.93;8.50;;;;;;;7.78;63.16;102340.47;3613858;39;20353;-66
2023/04/18 06:08:50;;;;;;;10.95;8.57;;;;;;;7.84;63.08;102337.63;3619147;39;20054;-67
2023/04/18 06:11:18;;;;;;;12.80;8.73;;;;;;;8.00;63.10;102351.50;3609194;39;20058;-67
2023/04/18 06:13:44;;;;;;;11.80;8.98;;;;;;;8.05;63.10;102353.09;3616492;39;20055;-67
2023/04/18 06:16:10;;;;;;;11.93;8.82;;;;;;;8.06;62.66;102349.53;3615434;39;20051;-68
2023/04/18 06:18:36;;;;;;;15.75;9.25;;;;;;;8.10;62.44;102355.69;3613399;39;20055;-67
2023/04/18 06:21:02;;;;;;;12.95;9.75;;;;;;;8.10;62.23;102361.91;3617833;39;20316;-67
2023/04/18 06:23:27;;;;;;;13.23;8.90;;;;;;;8.07;63.13;102348.59;3614045;39;20051;-68
2023/04/18 06:25:53;;;;;;;13.60;9.73;;;;;;;8.07;62.92;102348.59;3613416;39;20043;-68
2023/04/18 06:28:19;;;;;;;13.73;9.82;;;;;;;8.23;63.17;102364.25;3613151;39;20051;-67
2023/04/18 06:30:44;;;;;;;14.27;10.02;;;;;;;8.24;62.83;102358.84;3615187;39;20046;-67
2023/04/18 06:33:10;;;;;;;13.68;9.52;;;;;;;8.33;62.75;102358.59;3615483;39;20063;-67
2023/04/18 06:35:36;;;;;;;13.13;10.05;;;;;;;8.43;63.22;102361.91;3614026;39;20043;-66
2023/04/18 06:38:03;;;;;;;12.25;9.30;;;;;;;8.48;62.82;102360.00;3613534;39;20050;-66
2023/04/18 06:40:28;;;;;;;13.77;9.32;;;;;;;8.63;62.63;102361.38;3613254;39;20629;-67
2023/04/18 06:42:54;;;;;;;11.40;9.15;;;;;;;8.71;62.40;102363.81;3615916;39;20046;-67
2023/04/18 06:45:20;;;;;;;15.07;10.13;;;;;;;8.79;62.39;102370.72;3604156;39;20086;-67
2023/04/18 06:47:46;;;;;;;11.35;10.02;;;;;;;8.90;62.65;102370.38;3615882;39;20082;-66
2023/04/18 06:50:13;;;;;;;11.52;9.32;;;;;;;9.02;62.40;102372.69;3605355;39;20047;-65
2023/04/18 06:52:43;;;;;;;12.50;9.40;;;;;;;9.10;61.63;102372.44;3613657;39;20055;-66
2023/04/18 06:55:11;;;;;;;13.77;9.10;;;;;;;9.24;61.72;102372.03;3615319;39;20124;-66
2023/04/18 06:57:38;;;;;;;21.70;15.95;;;;;;;9.33;61.21;102374.44;3618164;39;20055;-67
2023/04/18 07:00:05;;;;;;;15.18;9.98;;;;;;;9.39;61.89;102368.00;3617398;39;20127;-66
2023/04/18 07:02:30;;;;;;;12.73;9.05;;;;;;;9.51;61.02;102376.53;3605321;39;20383;-67
2023/04/18 07:04:56;;;;;;;10.00;8.20;;;;;;;9.62;61.45;102378.00;3616315;39;20126;-66
2023/04/18 07:07:22;;;;;;;12.75;8.98;;;;;;;9.71;60.24;102385.75;3617988;39;20267;-67
2023/04/18 07:09:48;;;;;;;10.35;8.05;;;;;;;9.73;59.96;102381.19;3617288;39;20054;-67
2023/04/18 07:12:15;;;;;;;10.25;9.07;;;;;;;9.73;59.91;102381.19;3615934;39;20055;-67
2023/04/18 07:14:40;;;;;;;9.77;7.78;;;;;;;9.75;60.47;102387.38;3619196;39;20385;-68
2023/04/18 07:17:06;;;;;;;14.38;8.55;;;;;;;9.77;60.80;102370.31;3620058;39;20058;-67
2023/04/18 07:19:32;;;;;;;10.15;8.25;;;;;;;9.85;60.77;102375.41;3616959;39;20059;-67
2023/04/18 07:21:57;;;;;;;10.57;8.27;;;;;;;9.90;60.36;102378.81;3617463;39;20090;-67
2023/04/18 07:24:23;;;;;;;11.48;8.40;;;;;;;9.99;60.62;102385.69;3620479;39;20370;-67
2023/04/18 07:26:50;;;;;;;8.93;8.00;;;;;;;10.12;59.79;102380.78;3614965;39;20063;-68
2023/04/18 07:29:18;;;;;;;11.10;9.18;;;;;;;10.28;59.83;102384.69;3616965;39;20466;-67
2023/04/18 07:31:45;;;;;;;9.70;7.88;;;;;;;10.37;59.17;102394.22;3614554;39;20047;-67
2023/04/18 07:34:12;;;;;;;9.55;7.72;;;;;;;10.35;58.95;102393.41;3605584;39;20408;-68
2023/04/18 07:36:38;;;;;;;10.90;8.60;;;;;;;10.35;58.72;102390.72;3615227;39;20050;-67
2023/04/18 07:39:05;;;;;;;10.55;8.20;;;;;;;10.38;59.69;102401.38;3616593;39;20083;-67
2023/04/18 07:41:31;;;;;;;10.88;8.68;;;;;;;10.43;59.54;102394.00;3615165;39;20087;-67
2023/04/18 07:43:57;;;;;;;8.27;7.35;;;;;;;10.38;58.83;102383.44;3611456;39;20061;-67
2023/04/18 07:46:23;;;;;;;9.15;8.15;;;;;;;10.54;59.43;102401.69;3614664;39;20376;-67
2023/04/18 07:48:49;;;;;;;9.77;7.53;;;;;;;10.73;59.38;102397.41;3616490;39;20152;-67
2023/04/18 07:51:15;;;;;;;8.85;7.78;;;;;;;10.16;58.19;102266.84;3615289;39;20084;-67
2023/04/18 07:53:42;;;;;;;9.65;8.43;;;;;;;11.13;58.33;102395.84;3614644;39;20359;-67
2023/04/18 07:56:08;;;;;;;10.80;7.97;;;;;;;11.41;57.91;102397.47;3614158;39;20047;-67
2023/04/18 07:58:34;;;;;;;10.20;8.23;;;;;;;11.61;56.49;102397.56;3614621;39;20490;-67
2023/04/18 08:01:01;;;;;;;9.25;6.95;;;;;;;11.78;56.20;102399.53;3614929;39;20123;-67
2023/04/18 08:03:26;;;;;;;13.40;8.10;;;;;;;11.81;55.07;102402.97;3614136;39;20062;-67
2023/04/18 08:05:52;;;;;;;9.80;7.93;;;;;;;11.85;55.78;102406.44;3606645;39;20061;-66
2023/04/18 08:08:18;;;;;;;9.13;7.72;;;;;;;11.91;55.84;102408.03;3614097;39;20108;-67
2023/04/18 08:10:44;;;;;;;11.50;7.50;;;;;;;11.20;55.82;102283.47;3616328;39;20263;-67
2023/04/18 08:13:12;;;;;;;8.15;7.35;;;;;;;11.87;55.88;102404.59;3618818;39;20054;-67
2023/04/18 08:15:39;;;;;;;9.90;7.60;;;;;;;11.89;55.86;102415.28;3614274;39;20462;-67
2023/04/18 08:18:05;;;;;;;10.77;7.70;;;;;;;11.89;55.64;102417.97;3614589;39;20046;-67
2023/04/18 08:20:30;;;;;;;9.32;7.95;;;;;;;11.91;56.17;102416.97;3614483;39;20309;-67
2023/04/18 08:22:56;;;;;;;8.48;7.53;;;;;;;11.90;55.62;102406.28;3606204;39;20061;-67
2023/04/18 08:25:22;;;;;;;9.60;7.60;;;;;;;11.77;55.55;102409.44;3615700;39;20115;-67
2023/04/18 08:27:47;;;;;;;8.82;7.70;;;;;;;11.64;55.94;102418.97;3614426;39;20369;-67
2023/04/18 08:30:14;;;;;;;9.57;7.90;;;;;;;11.09;56.91;102318.88;3614212;39;20301;-67
2023/04/18 08:32:39;;;;;;;9.27;7.80;;;;;;;11.67;57.27;102410.78;3605015;39;20066;-67
2023/04/18 08:35:06;;;;;;;10.02;7.50;;;;;;;11.73;57.41;102415.88;3607020;39;20050;-67
2023/04/18 08:37:34;;;;;;;10.57;8.30;;;;;;;11.66;56.50;102409.00;3614527;39;20382;-67
2023/04/18 08:40:02;;;;;;;11.25;9.50;;;;;;;11.59;56.70;102416.44;3614429;39;20367;-67
2023/04/18 08:42:29;;;;;;;10.70;9.05;;;;;;;10.69;57.38;102237.97;3614800;39;20054;-67
2023/04/18 08:44:57;;;;;;;10.95;8.10;;;;;;;11.78;57.38;102413.00;3606791;39;20118;-67
2023/04/18 08:47:22;;;;;;;12.38;8.20;;;;;;;11.88;56.63;102419.78;3615395;39;20089;-67
2023/04/18 08:49:48;;;;;;;12.27;8.38;;;;;;;11.29;56.82;102288.44;3616917;39;20388;-67
2023/04/18 08:52:18;;;;;;;8.57;7.70;;;;;;;11.97;56.94;102405.06;3614917;39;20076;-66
2023/04/18 08:54:46;;;;;;;8.85;7.95;;;;;;;12.06;56.36;102404.69;3614168;39;20046;-66
2023/04/18 08:57:22;;;;;;;8.85;7.95;;;;;;;12.19;56.69;102400.50;3613925;39;20050;-67
2023/04/18 08:59:49;;;;;;;12.52;8.25;;;;;;;12.35;55.94;102386.34;3614129;39;20047;-66
2023/04/18 09:02:15;;;;;;;10.50;8.18;;;;;;;12.60;55.81;102389.72;3613626;39;20381;-67
2023/04/18 09:04:44;;;;;;;10.35;7.70;;;;;;;12.88;54.87;102380.34;3616804;39;20047;-68
2023/04/18 09:07:16;;;;;;;8.98;7.55;;;;;;;13.24;54.10;102394.81;3616005;39;20043;-66
2023/04/18 09:09:48;;;;;;;8.98;7.82;;;;;;;13.33;52.76;102393.50;3616341;39;20055;-67
2023/04/18 09:12:24;;;;;;;9.18;8.32;;;;;;;13.35;52.62;102393.44;3617533;39;20042;-67
2023/04/18 09:15:08;;;;;;;9.45;7.97;;;;;;;13.58;52.32;102387.78;3604222;39;20054;-67
2023/04/18 09:17:44;;;;;;;9.50;7.75;;;;;;;13.51;52.25;102294.50;3614185;39;20378;-67
2023/04/18 09:20:14;;;;;;;8.88;7.03;;;;;;;14.45;50.71;102392.38;3615770;39;20053;-67
2023/04/18 09:22:50;;;;;;;8.50;7.70;;;;;;;14.55;48.84;102377.41;3615684;39;20101;-67
2023/04/18 09:25:36;;;;;;;12.32;7.97;;;;;;;14.38;48.92;102365.63;3614752;39;20042;-66
2023/04/18 09:28:30;;;;;;;9.35;7.60;;;;;;;14.22;48.42;102390.88;3614099;39;20050;-66
2023/04/18 09:31:16;;;;;;;;;;;;;;;13.96;49.27;102389.53;3614269;39;20095;-66
2023/04/18 09:33:53;;;;;;;9.68;7.50;;;;;;;13.77;49.62;102387.75;3613936;39;19935;-67
2023/04/18 09:36:22;;;;;;;10.55;7.90;;;;;;;13.69;50.22;102382.72;3603779;39;20051;-66
2023/04/18 09:38:51;;;;;;;9.40;7.28;;;;;;;13.14;50.82;102279.22;3617297;39;20043;-67
2023/04/18 09:41:17;;;;;;;11.88;7.45;;;;;;;13.77;50.77;102389.59;3614477;39;20057;-66
2023/04/18 09:43:45;;;;;;;10.35;7.57;;;;;;;13.73;50.55;102382.56;3604572;39;20055;-66
2023/04/18 09:46:12;;;;;;;8.30;7.20;;;;;;;13.68;50.86;102386.38;3614148;39;20050;-67
2023/04/18 09:48:40;;;;;;;8.88;6.85;;;;;;;13.65;50.62;102380.25;3605820;39;20102;-66
2023/04/18 09:51:09;;;;;;;7.65;6.85;;;;;;;12.98;50.80;102265.59;3616357;39;20373;-66
2023/04/18 09:53:43;;;;;;;9.25;6.55;;;;;;;13.67;50.98;102379.22;3613749;39;20115;-66
2023/04/18 09:56:22;;;;;;;7.78;6.60;;;;;;;13.16;50.51;102274.59;3615067;39;20491;-66
2023/04/18 09:59:00;;;;;;;11.43;6.70;;;;;;;13.77;50.36;102373.38;3619840;39;20143;-66
2023/04/18 10:01:28;;;;;;;8.32;7.00;;;;;;;13.88;50.03;102376.38;3613526;39;20131;-67
2023/04/18 10:03:56;;;;;;;8.15;6.55;;;;;;;13.27;50.04;102263.31;3613844;39;20370;-67
2023/04/18 10:06:26;;;;;;;7.63;6.57;;;;;;;13.89;49.79;102359.19;3610020;39;20047;-67
2023/04/18 10:08:54;;;;;;;7.88;7.00;;;;;;;13.83;49.79;102365.81;3617780;39;20095;-67
2023/04/18 10:11:20;;;;;;;7.97;6.47;;;;;;;13.83;49.84;102379.34;3606783;39;20123;-66
2023/04/18 10:13:52;;;;;;;7.10;6.18;;;;;;;13.84;49.95;102377.50;3614423;39;20043;-66
2023/04/18 10:16:19;;;;;;;9.32;6.97;;;;;;;13.14;50.17;102261.19;3615508;39;20081;-67
2023/04/18 10:18:45;;;;;;;9.93;6.32;;;;;;;13.79;49.91;102374.16;3612274;39;20046;-66
2023/04/18 10:21:11;;;;;;;7.85;5.63;;;;;;;13.74;49.68;102373.53;3615311;39;20051;-68
2023/04/18 10:23:39;;;;;;;7.00;5.55;;;;;;;13.78;50.26;102369.69;3614280;39;20062;-67
2023/04/18 10:26:08;;;;;;;8.90;6.10;;;;;;;13.73;50.12;102383.44;3603287;39;20273;-68
2023/04/18 10:28:57;;;;;;;8.68;4.93;;;;;;;13.57;49.66;102372.50;3615586;39;20348;-67
2023/04/18 10:31:27;;;;;;;5.40;4.80;;;;;;;13.70;50.32;102379.06;3616815;39;20062;-67
2023/04/18 10:33:56;;;;;;;4.97;4.45;;;;;;;13.71;48.87;102385.34;3613220;39;20055;-67
2023/04/18 10:36:22;;;;;;;5.18;4.20;;;;;;;13.75;49.16;102380.66;3613298;39;20351;-67
2023/04/18 10:38:52;;;;;;;6.25;4.88;;;;;;;13.79;48.58;102377.72;3614621;39;20058;-67
2023/04/18 10:41:30;;;;;;;5.40;4.60;;;;;;;13.82;48.76;102388.38;3613436;39;20312;-67
2023/04/18 10:44:13;;;;;;;8.68;5.13;;;;;;;13.74;47.63;102384.34;3605599;39;20095;-67
2023/04/18 10:46:51;;;;;;;8.13;4.82;;;;;;;13.76;47.04;102379.69;3613820;39;20081;-67
2023/04/18 10:49:23;;;;;;;7.75;5.30;;;;;;;13.72;47.88;102375.41;3615146;39;20112;-67
2023/04/18 10:51:52;;;;;;;6.20;5.13;;;;;;;13.84;48.54;102375.66;3614080;39;20047;-67
2023/04/18 10:54:46;;;;;;;6.18;5.15;;;;;;;14.15;48.18;102372.25;3615917;39;20050;-67
2023/04/18 10:57:12;;;;;;;7.38;4.95;;;;;;;14.36;48.14;102382.91;3613046;39;20058;-67
2023/04/18 10:59:47;;;;;;;7.75;5.95;;;;;;;14.37;47.39;102380.13;3615961;39;20054;-67
2023/04/18 11:02:25;;;;;;;8.30;5.38;;;;;;;14.29;47.52;102393.16;3613178;39;20062;-66
2023/04/18 11:04:58;;;;;;;6.03;5.43;;;;;;;14.12;47.66;102391.34;3613133;39;20051;-67
2023/04/18 11:07:32;;;;;;;;;;;;;;;13.97;49.19;102375.03;3613211;39;20096;-67
2023/04/18 11:09:59;;;;;;;6.72;5.50;;;;;;;13.90;49.65;102382.59;3613014;39;19931;-67
2023/04/18 11:12:32;;;;;;;5.93;5.25;;;;;;;13.82;48.98;102374.00;3616779;39;20066;-66
2023/04/18 11:15:00;;;;;;;5.88;5.28;;;;;;;13.77;49.50;102378.78;3614766;39;20058;-67
2023/04/18 11:17:31;;;;;;;5.90;5.32;;;;;;;13.70;49.65;102372.78;3613299;39;20066;-66
2023/04/18 11:20:13;;;;;;;6.07;5.43;;;;;;;13.77;50.47;102367.97;3613621;39;20062;-66
2023/04/18 11:22:59;;;;;;;7.15;6.00;;;;;;;13.82;50.42;102369.44;3614870;39;20050;-66
2023/04/18 11:25:35;;;;;;;9.82;7.65;;;;;;;13.83;50.69;102378.47;3616276;39;20141;-67
2023/04/18 11:28:03;;;;;;;7.80;6.45;;;;;;;13.64;50.53;102373.97;3612865;39;20039;-67